Time;durP1;ratioP1;P1;durP2;ratioP2;P2;SDS_P1;SDS_P2;PMS_P1;PMS_P2;Temp;Humidity;BMP_temperature;BMP_pressure;BME280_temperature;BME280_humidity;BME280_pressure;Samples;Min_cycle;Max_cycle;Signal;HPM_P1;HPM_P2
2022/10/28 00:00:30;;;;;;;;;;;18.90;99.90;;;;;;5075671;28;19908;-80
2022/10/28 00:02:58;;;;;;;;;;;18.90;99.90;;;;;;5093711;28;19911;-79
2022/10/28 00:05:23;;;;;;;;;;;18.90;99.90;;;;;;5075421;28;19908;-80
2022/10/28 00:07:49;;;;;;;;;;;18.90;99.90;;;;;;5073891;28;19908;-80
2022/10/28 00:10:14;;;;;;;;;;;18.90;99.90;;;;;;5093483;28;20010;-79
2022/10/28 00:12:40;;;;;;;;;;;18.90;99.90;;;;;;5093655;28;19912;-80
2022/10/28 00:15:05;;;;;;;;;;;18.90;99.90;;;;;;5093754;28;19912;-80
2022/10/28 00:17:31;;;;;;;;;;;18.90;99.90;;;;;;5093526;28;19908;-79
2022/10/28 00:19:56;;;;;;;;;;;18.90;99.90;;;;;;5093077;28;20045;-80
2022/10/28 00:22:22;;;;;;;;;;;18.90;99.90;;;;;;5075363;28;20081;-80
2022/10/28 00:24:47;;;;;;;;;;;19.00;99.90;;;;;;5093373;28;19916;-80
2022/10/28 00:27:13;;;;;;;;;;;19.00;99.90;;;;;;5093361;28;19951;-80
2022/10/28 00:29:38;;;;;;;;;;;19.00;99.90;;;;;;5075162;28;20287;-80
2022/10/28 00:32:04;;;;;;;;;;;19.00;99.90;;;;;;5093286;28;19919;-80
2022/10/28 00:34:29;;;;;;;;;;;19.00;99.90;;;;;;5093085;28;20409;-80
2022/10/28 00:36:54;;;;;;;;;;;19.10;99.90;;;;;;5093088;28;19999;-80
2022/10/28 00:39:22;;;;;;;;;;;19.10;99.90;;;;;;5093246;28;20412;-80
2022/10/28 00:41:49;;;;;;;;;;;19.10;99.90;;;;;;5093040;28;19912;-80
2022/10/28 00:44:33;;;;;;;;;;;19.20;99.90;;;;;;5093141;28;19908;-80
2022/10/28 00:46:59;;;;;;;;;;;19.20;99.90;;;;;;5093000;28;20470;-80
2022/10/28 00:49:28;;;;;;;;;;;19.20;99.90;;;;;;5074969;28;19915;-80
2022/10/28 00:52:06;;;;;;;;;;;19.20;99.90;;;;;;5092867;28;20003;-80
2022/10/28 00:54:32;;;;;;;;;;;19.20;99.90;;;;;;5074765;28;19914;-80
2022/10/28 00:56:59;;;;;;;;;;;19.20;99.90;;;;;;5092864;28;20550;-79
2022/10/28 00:59:26;;;;;;;;;;;19.20;99.90;;;;;;5074441;28;19915;-80
2022/10/28 01:01:52;;;;;;;;;;;19.10;99.90;;;;;;5090744;28;19919;-80
2022/10/28 01:04:18;;;;;;;;;;;19.20;99.90;;;;;;5092187;28;20556;-79
2022/10/28 01:06:45;;;;;;;;;;;19.20;99.90;;;;;;5092582;28;19909;-80
2022/10/28 01:09:10;;;;;;;;;;;19.20;99.90;;;;;;5093124;28;20398;-80
2022/10/28 01:11:50;;;;;;;;;;;19.10;99.90;;;;;;5092292;28;19916;-80
2022/10/28 01:14:18;;;;;;;;;;;19.10;99.90;;;;;;5092813;28;19966;-79
2022/10/28 01:17:02;;;;;;;;;;;19.10;99.90;;;;;;5092502;28;19912;-80
2022/10/28 01:19:46;;;;;;;;;;;19.10;99.90;;;;;;5096567;28;20064;-80
2022/10/28 01:22:11;;;;;;;;;;;19.10;99.90;;;;;;5099472;28;20268;-80
2022/10/28 01:24:39;;;;;;;;;;;19.10;99.90;;;;;;5099369;28;19912;-79
2022/10/28 01:27:15;;;;;;;;;;;19.10;99.90;;;;;;5099318;28;19912;-80
2022/10/28 01:29:43;;;;;;;;;;;19.10;99.90;;;;;;5099140;28;19934;-80
2022/10/28 01:32:28;;;;;;;;;;;19.10;99.90;;;;;;5099130;28;19916;-80
2022/10/28 01:35:13;;;;;;;;;;;19.10;99.90;;;;;;5097809;28;20020;-80
2022/10/28 01:37:46;;;;;;;;;;;19.10;99.90;;;;;;5084501;28;19954;-80
2022/10/28 01:40:26;;;;;;;;;;;19.10;99.90;;;;;;5097774;28;19914;-80
2022/10/28 01:43:12;;;;;;;;;;;19.10;99.90;;;;;;5099284;28;19914;-80
2022/10/28 01:45:55;;;;;;;;;;;19.10;99.90;;;;;;5098086;28;19919;-79
2022/10/28 01:48:33;;;;;;;;;;;19.00;99.90;;;;;;5097878;28;19909;-80
2022/10/28 01:51:02;;;;;;;;;;;19.00;99.90;;;;;;5097787;28;19908;-79
2022/10/28 01:53:30;;;;;;;;;;;19.00;99.90;;;;;;5099059;28;19919;-80
2022/10/28 01:55:58;;;;;;;;;;;19.00;99.90;;;;;;5080824;28;20516;-80
2022/10/28 01:58:26;;;;;;;;;;;19.00;99.90;;;;;;5099055;28;19947;-80
2022/10/28 02:00:52;;;;;;;;;;;19.00;99.90;;;;;;5099101;28;19909;-80
2022/10/28 02:03:17;;;;;;;;;;;19.10;99.90;;;;;;5098997;28;20436;-80
2022/10/28 02:05:44;;;;;;;;;;;19.00;99.90;;;;;;5098784;28;19909;-80
2022/10/28 02:08:10;;;;;;;;;;;19.00;99.90;;;;;;5099089;28;19957;-80
2022/10/28 02:10:37;;;;;;;;;;;19.00;99.90;;;;;;5098675;28;19915;-80
2022/10/28 02:13:06;;;;;;;;;;;19.00;99.90;;;;;;5098962;28;19999;-80
2022/10/28 02:15:49;;;;;;;;;;;19.00;99.90;;;;;;5098758;28;20313;-80
2022/10/28 02:18:36;;;;;;;;;;;18.90;99.90;;;;;;5098975;28;19908;-80
2022/10/28 02:21:05;;;;;;;;;;;18.80;99.90;;;;;;5099062;28;19947;-79
2022/10/28 02:23:40;;;;;;;;;;;18.80;99.90;;;;;;5081033;28;19909;-80
2022/10/28 02:26:23;;;;;;;;;;;18.70;99.90;;;;;;5098694;28;20325;-80
2022/10/28 02:28:55;;;;;;;;;;;18.60;99.90;;;;;;5099025;28;19915;-80
2022/10/28 02:31:21;;;;;;;;;;;18.50;99.90;;;;;;5094893;28;20003;-80
2022/10/28 02:33:49;;;;;;;;;;;18.50;99.90;;;;;;5094322;28;20007;-80
2022/10/28 02:36:16;;;;;;;;;;;18.50;99.90;;;;;;5095167;28;19974;-80
2022/10/28 02:38:43;;;;;;;;;;;18.50;99.90;;;;;;5095374;28;19908;-79
2022/10/28 02:41:18;;;;;;;;;;;18.50;99.90;;;;;;5095167;28;19908;-80
2022/10/28 02:43:45;;;;;;;;;;;18.50;99.90;;;;;;5095185;28;20439;-80
2022/10/28 02:46:11;;;;;;;;;;;18.40;99.90;;;;;;5094827;28;19912;-79
2022/10/28 02:48:39;;;;;;;;;;;18.40;99.90;;;;;;5095296;28;19913;-80
2022/10/28 02:51:12;;;;;;;;;;;18.40;99.90;;;;;;5077146;28;20010;-80
2022/10/28 02:53:56;;;;;;;;;;;18.40;99.90;;;;;;5095083;28;19916;-80
2022/10/28 02:56:22;;;;;;;;;;;18.40;99.90;;;;;;5095091;28;19939;-80
2022/10/28 02:58:47;;;;;;;;;;;18.40;99.90;;;;;;5093589;28;19940;-79
2022/10/28 03:01:13;;;;;;;;;;;18.40;99.90;;;;;;5095139;28;19908;-80
2022/10/28 03:03:39;;;;;;;;;;;18.40;99.90;;;;;;5094833;28;19908;-79
2022/10/28 03:06:04;;;;;;;;;;;18.30;99.90;;;;;;5094807;28;19912;-80
2022/10/28 03:08:30;;;;;;;;;;;18.30;99.90;;;;;;5095053;28;19951;-80
2022/10/28 03:10:55;;;;;;;;;;;18.30;99.90;;;;;;5076357;28;19920;-80
2022/10/28 03:13:21;;;;;;;;;;;18.30;99.90;;;;;;5076660;28;19913;-80
2022/10/28 03:15:46;;;;;;;;;;;18.20;99.90;;;;;;5076224;28;19912;-79
2022/10/28 03:18:12;;;;;;;;;;;18.20;99.90;;;;;;5094776;28;19908;-80
2022/10/28 03:20:37;;;;;;;;;;;18.10;99.90;;;;;;5094564;28;19912;-80
2022/10/28 03:23:03;;;;;;;;;;;18.00;99.90;;;;;;5094770;28;19915;-80
2022/10/28 03:25:28;;;;;;;;;;;18.00;99.90;;;;;;5094569;28;20010;-80
2022/10/28 03:27:54;;;;;;;;;;;18.00;99.90;;;;;;5076434;28;19915;-80
2022/10/28 03:30:19;;;;;;;;;;;18.00;99.90;;;;;;5094256;28;19943;-79
2022/10/28 03:32:45;;;;;;;;;;;17.90;99.90;;;;;;5094459;28;19918;-80
2022/10/28 03:35:10;;;;;;;;;;;17.90;99.90;;;;;;5094471;28;19914;-79
2022/10/28 03:37:36;;;;;;;;;;;17.90;99.90;;;;;;5075910;28;19965;-79
2022/10/28 03:40:06;;;;;;;;;;;17.90;99.90;;;;;;5094175;28;20011;-79
2022/10/28 03:42:32;;;;;;;;;;;17.80;99.90;;;;;;5093992;28;19930;-79
2022/10/28 03:44:58;;;;;;;;;;;17.70;99.90;;;;;;5094192;28;19990;-80
2022/10/28 03:47:24;;;;;;;;;;;17.70;99.90;;;;;;5093772;28;20366;-80
2022/10/28 03:49:49;;;;;;;;;;;17.70;99.90;;;;;;5094240;28;20367;-79
2022/10/28 03:52:15;;;;;;;;;;;17.60;99.90;;;;;;5093932;28;19912;-80
2022/10/28 03:54:40;;;;;;;;;;;17.60;99.90;;;;;;5094453;28;19958;-79
2022/10/28 03:57:06;;;;;;;;;;;17.60;99.90;;;;;;5093920;28;19930;-79
2022/10/28 03:59:31;;;;;;;;;;;17.60;99.90;;;;;;5093929;28;19908;-80
2022/10/28 04:01:57;;;;;;;;;;;17.60;99.90;;;;;;5093965;28;19912;-80
2022/10/28 04:04:22;;;;;;;;;;;17.70;99.90;;;;;;5075637;28;19914;-79
2022/10/28 04:06:48;;;;;;;;;;;17.70;99.90;;;;;;5075526;28;19931;-79
2022/10/28 04:09:13;;;;;;;;;;;17.70;99.90;;;;;;5093854;28;19908;-79
2022/10/28 04:11:40;;;;;;;;;;;17.70;99.90;;;;;;5085036;22;20430;-83
2022/10/28 04:14:06;;;;;;;;;;;17.80;99.90;;;;;;5035881;28;19914;-83
2022/10/28 04:16:31;;;;;;;;;;;17.80;99.90;;;;;;5035436;28;19916;-83
2022/10/28 04:18:57;;;;;;;;;;;17.80;99.90;;;;;;5035424;28;20517;-83
2022/10/28 04:21:22;;;;;;;;;;;17.80;99.90;;;;;;5034895;28;19909;-83
2022/10/28 04:23:48;;;;;;;;;;;17.90;99.90;;;;;;5016143;28;19909;-82
2022/10/28 04:26:14;;;;;;;;;;;17.90;99.90;;;;;;5017037;28;19909;-82
2022/10/28 04:28:39;;;;;;;;;;;17.90;99.90;;;;;;5017276;28;19910;-83
2022/10/28 04:31:05;;;;;;;;;;;17.90;99.90;;;;;;5034492;28;19909;-83
2022/10/28 04:33:30;;;;;;;;;;;17.90;99.90;;;;;;5034447;28;19913;-83
2022/10/28 04:35:56;;;;;;;;;;;17.90;99.90;;;;;;5034378;28;19936;-83
2022/10/28 04:38:22;;;;;;;;;;;17.90;99.90;;;;;;5016678;28;20015;-83
2022/10/28 04:40:50;;;;;;;;;;;17.90;99.90;;;;;;5016399;28;19917;-83
2022/10/28 04:43:16;;;;;;;;;;;17.90;99.90;;;;;;5016555;28;19983;-83
2022/10/28 04:45:41;;;;;;;;;;;17.90;99.90;;;;;;5016466;28;20308;-82
2022/10/28 04:48:08;;;;;;;;;;;17.90;99.90;;;;;;5034163;28;19952;-83
2022/10/28 04:50:33;;;;;;;;;;;17.90;99.90;;;;;;5016188;28;20284;-83
2022/10/28 04:52:59;;;;;;;;;;;17.90;99.90;;;;;;5015950;28;19913;-82
2022/10/28 04:55:24;;;;;;;;;;;17.90;99.90;;;;;;5015818;28;20377;-83
2022/10/28 04:57:53;;;;;;;;;;;17.90;99.90;;;;;;5034128;28;19909;-83
2022/10/28 05:00:19;;;;;;;;;;;17.90;99.90;;;;;;5016605;28;20269;-81
2022/10/28 05:02:44;;;;;;;;;;;17.90;99.90;;;;;;5016224;28;19916;-83
2022/10/28 05:05:10;;;;;;;;;;;17.90;99.90;;;;;;5034249;28;20410;-83
2022/10/28 05:07:36;;;;;;;;;;;17.90;99.90;;;;;;5033586;28;19909;-82
2022/10/28 05:10:02;;;;;;;;;;;17.80;99.90;;;;;;5016076;28;20384;-83
2022/10/28 05:12:27;;;;;;;;;;;17.80;99.90;;;;;;5015662;28;19947;-83
2022/10/28 05:14:53;;;;;;;;;;;17.90;99.90;;;;;;5015501;28;20423;-83
2022/10/28 05:17:18;;;;;;;;;;;17.90;99.90;;;;;;5031616;28;19999;-83
2022/10/28 05:19:44;;;;;;;;;;;17.90;99.90;;;;;;5015980;28;20360;-82
2022/10/28 05:22:09;;;;;;;;;;;17.90;99.90;;;;;;5033544;28;19916;-81
2022/10/28 05:24:35;;;;;;;;;;;17.90;99.90;;;;;;5015669;28;19959;-84
2022/10/28 05:27:00;;;;;;;;;;;17.80;99.90;;;;;;5015448;28;19960;-81
2022/10/28 05:29:26;;;;;;;;;;;17.80;99.90;;;;;;5014999;28;19910;-82
2022/10/28 05:31:51;;;;;;;;;;;17.90;99.90;;;;;;5033466;28;19909;-83
2022/10/28 05:34:16;;;;;;;;;;;17.90;99.90;;;;;;5015870;28;20383;-82
2022/10/28 05:36:42;;;;;;;;;;;17.90;99.90;;;;;;5015678;28;19963;-82
2022/10/28 05:39:07;;;;;;;;;;;17.90;99.90;;;;;;5015607;28;19948;-83
2022/10/28 05:41:33;;;;;;;;;;;17.90;99.90;;;;;;5015507;28;20574;-82
2022/10/28 05:43:58;;;;;;;;;;;17.80;99.90;;;;;;5033573;28;19932;-82
2022/10/28 05:46:24;;;;;;;;;;;17.60;99.90;;;;;;5033009;28;19996;-83
2022/10/28 05:48:52;;;;;;;;;;;17.50;99.90;;;;;;5015647;28;19909;-82
2022/10/28 05:51:17;;;;;;;;;;;17.40;99.90;;;;;;5015580;28;20327;-83
2022/10/28 05:53:43;;;;;;;;;;;17.40;99.90;;;;;;5015586;28;19914;-82
2022/10/28 05:56:09;;;;;;;;;;;17.30;99.90;;;;;;5032061;28;20369;-82
2022/10/28 05:58:34;;;;;;;;;;;17.20;99.90;;;;;;5033373;28;19913;-83
2022/10/28 06:01:00;;;;;;;;;;;17.20;99.90;;;;;;5015563;28;20007;-83
2022/10/28 06:03:25;;;;;;;;;;;17.20;99.90;;;;;;5015862;28;19910;-83
2022/10/28 06:05:51;;;;;;;;;;;17.10;99.90;;;;;;5035706;28;19932;-83
2022/10/28 06:08:16;;;;;;;;;;;17.10;99.90;;;;;;5019339;28;19920;-82
2022/10/28 06:10:48;;;;;;;;;;;17.10;99.90;;;;;;5018713;28;19910;-84
2022/10/28 06:13:14;;;;;;;;;;;17.10;99.90;;;;;;5019455;28;19913;-83
2022/10/28 06:15:39;;;;;;;;;;;17.10;99.90;;;;;;5019353;28;19910;-83
2022/10/28 06:18:05;;;;;;;;;;;17.10;99.90;;;;;;5036905;28;20291;-83
2022/10/28 06:20:31;;;;;;;;;;;17.10;99.90;;;;;;5019189;28;19955;-83
2022/10/28 06:22:56;;;;;;;;;;;17.10;99.90;;;;;;5019060;28;20347;-83
2022/10/28 06:25:22;;;;;;;;;;;17.10;99.90;;;;;;5033988;28;19909;-81
2022/10/28 06:27:52;;;;;;;;;;;17.20;99.90;;;;;;5018921;28;19910;-83
2022/10/28 06:30:17;;;;;;;;;;;17.20;99.90;;;;;;5019163;28;20434;-83
2022/10/28 06:32:42;;;;;;;;;;;17.20;99.90;;;;;;5019116;28;19960;-83
2022/10/28 06:35:08;;;;;;;;;;;17.30;99.90;;;;;;5018950;28;19940;-82
2022/10/28 06:37:33;;;;;;;;;;;17.30;99.90;;;;;;5018362;28;19924;-81
2022/10/28 06:39:59;;;;;;;;;;;17.40;99.90;;;;;;5019813;28;19962;-82
2022/10/28 06:42:25;;;;;;;;;;;17.50;99.90;;;;;;5037266;28;19909;-84
2022/10/28 06:44:51;;;;;;;;;;;17.50;99.90;;;;;;5019981;28;20016;-83
2022/10/28 06:47:16;;;;;;;;;;;17.60;99.90;;;;;;5019993;28;19909;-83
2022/10/28 06:49:42;;;;;;;;;;;17.70;99.90;;;;;;5037953;28;19999;-81
2022/10/28 06:52:07;;;;;;;;;;;17.80;99.90;;;;;;5021352;28;19913;-82
2022/10/28 06:54:32;;;;;;;;;;;17.90;99.90;;;;;;5037638;28;19999;-83
2022/10/28 06:56:58;;;;;;;;;;;18.00;99.90;;;;;;5021142;28;19968;-81
2022/10/28 06:59:23;;;;;;;;;;;18.00;99.90;;;;;;5020353;28;20007;-82
2022/10/28 07:01:49;;;;;;;;;;;18.00;99.90;;;;;;5021253;28;20261;-82
2022/10/28 07:04:14;;;;;;;;;;;18.00;99.90;;;;;;5019423;28;20338;-81
2022/10/28 07:06:40;;;;;;;;;;;18.00;99.90;;;;;;5038505;28;19909;-82
2022/10/28 07:09:06;;;;;;;;;;;18.00;99.90;;;;;;5037929;28;19909;-81
2022/10/28 07:11:32;;;;;;;;;;;18.10;99.90;;;;;;5020024;28;20172;-83
2022/10/28 07:13:57;;;;;;;;;;;18.10;99.90;;;;;;5037253;28;20294;-81
2022/10/28 07:16:23;;;;;;;;;;;18.10;99.90;;;;;;5021760;28;20411;-83
2022/10/28 07:18:48;;;;;;;;;;;18.10;99.90;;;;;;5024025;28;20415;-82
2022/10/28 07:21:14;;;;;;;;;;;18.20;99.90;;;;;;5017709;28;19916;-82
2022/10/28 07:23:39;;;;;;;;;;;18.30;99.90;;;;;;5018243;28;19944;-82
2022/10/28 07:26:05;;;;;;;;;;;18.30;99.90;;;;;;5035628;28;19909;-82
2022/10/28 07:28:30;;;;;;;;;;;18.30;99.90;;;;;;5036008;28;19909;-82
2022/10/28 07:31:00;;;;;;;;;;;18.40;99.90;;;;;;5018227;28;20009;-81
2022/10/28 07:33:25;;;;;;;;;;;18.50;99.90;;;;;;5017534;28;19924;-82
2022/10/28 07:35:51;;;;;;;;;;;18.50;99.90;;;;;;5017226;28;19909;-82
2022/10/28 07:38:16;;;;;;;;;;;18.60;99.90;;;;;;5017722;28;19913;-82
2022/10/28 07:40:42;;;;;;;;;;;18.60;99.90;;;;;;5035197;28;19909;-81
2022/10/28 07:43:07;;;;;;;;;;;18.70;99.90;;;;;;5017093;28;20361;-83
2022/10/28 07:45:33;;;;;;;;;;;18.80;99.90;;;;;;5016931;28;19909;-81
2022/10/28 07:47:59;;;;;;;;;;;18.90;99.90;;;;;;5017237;28;19909;-82
2022/10/28 07:50:24;;;;;;;;;;;19.10;99.90;;;;;;5017054;28;19910;-82
2022/10/28 07:52:50;;;;;;;;;;;19.30;99.90;;;;;;5007490;28;19913;-82
2022/10/28 07:55:15;;;;;;;;;;;19.50;99.90;;;;;;5015998;28;19991;-82
2022/10/28 07:57:41;;;;;;;;;;;19.60;99.90;;;;;;5034058;28;19909;-82
2022/10/28 08:00:06;;;;;;;;;;;19.70;99.90;;;;;;5034696;28;19935;-82
2022/10/28 08:02:32;;;;;;;;;;;19.80;99.90;;;;;;5034076;28;19909;-82
2022/10/28 08:04:59;;;;;;;;;;;19.90;99.90;;;;;;5015838;28;19910;-83
2022/10/28 08:07:24;;;;;;;;;;;20.00;99.90;;;;;;5016327;28;19909;-83
2022/10/28 08:09:51;;;;;;;;;;;20.10;99.90;;;;;;5016427;28;20383;-84
2022/10/28 08:12:16;;;;;;;;;;;20.20;99.90;;;;;;5016022;28;20016;-83
2022/10/28 08:14:42;;;;;;;;;;;20.30;99.90;;;;;;5016422;28;19972;-83
2022/10/28 08:17:07;;;;;;;;;;;20.30;99.90;;;;;;5015886;28;19916;-82
2022/10/28 08:19:33;;;;;;;;;;;20.40;99.90;;;;;;5033924;28;19917;-82
2022/10/28 08:21:58;;;;;;;;;;;20.40;99.90;;;;;;5033586;28;20420;-82
2022/10/28 08:24:24;;;;;;;;;;;20.30;99.90;;;;;;5015917;28;19915;-82
2022/10/28 08:26:49;;;;;;;;;;;20.30;99.90;;;;;;5016238;28;19909;-83
2022/10/28 08:29:15;;;;;;;;;;;20.20;99.90;;;;;;5015685;28;19954;-83
2022/10/28 08:31:40;;;;;;;;;;;20.10;99.90;;;;;;5015977;28;20008;-81
2022/10/28 08:34:06;;;;;;;;;;;20.10;99.90;;;;;;5016314;28;19923;-84
2022/10/28 08:36:32;;;;;;;;;;;20.20;99.90;;;;;;5016340;28;19910;-82
2022/10/28 08:39:01;;;;;;;;;;;20.30;99.90;;;;;;5015749;28;19959;-82
2022/10/28 08:41:36;;;;;;;;;;;20.50;99.90;;;;;;5032612;28;19917;-82
2022/10/28 08:44:13;;;;;;;;;;;20.60;99.90;;;;;;5033596;28;19910;-83
2022/10/28 08:46:54;;;;;;;;;;;20.70;99.90;;;;;;5032368;28;20012;-83
2022/10/28 08:49:21;;;;;;;;;;;20.80;99.90;;;;;;5016170;28;19956;-81
2022/10/28 08:52:01;;;;;;;;;;;20.90;99.90;;;;;;5032318;28;19919;-83
2022/10/28 08:54:30;;;;;;;;;;;20.90;99.90;;;;;;5033822;28;19921;-84
2022/10/28 08:56:57;;;;;;;;;;;20.80;99.90;;;;;;5031621;28;19909;-82
2022/10/28 08:59:37;;;;;;;;;;;20.70;99.90;;;;;;5033571;28;19909;-81
2022/10/28 09:02:12;;;;;;;;;;;20.80;99.90;;;;;;5032068;28;19909;-82
2022/10/28 09:04:42;;;;;;;;;;;20.90;99.90;;;;;;5015751;28;19913;-82
2022/10/28 09:07:18;;;;;;;;;;;20.90;99.90;;;;;;5033634;28;19913;-82
2022/10/28 09:09:44;;;;;;;;;;;21.00;99.90;;;;;;5032009;28;20284;-82
2022/10/28 09:12:18;;;;;;;;;;;21.10;99.90;;;;;;5015324;28;20266;-82
2022/10/28 09:14:44;;;;;;;;;;;21.20;99.90;;;;;;5031985;28;19909;-82
2022/10/28 09:17:09;;;;;;;;;;;21.30;99.90;;;;;;5031353;28;20296;-83
2022/10/28 09:19:46;;;;;;;;;;;21.40;99.90;;;;;;5033579;28;19959;-83
2022/10/28 09:22:30;;;;;;;;;;;21.50;99.90;;;;;;5015129;28;20013;-82
2022/10/28 09:25:10;;;;;;;;;;;21.60;99.90;;;;;;5032082;28;19996;-82
2022/10/28 09:27:42;;;;;;;;;;;21.80;99.90;;;;;;5032866;28;19909;-82
2022/10/28 09:30:20;;;;;;;;;;;21.90;99.90;;;;;;5015211;28;19910;-83
2022/10/28 09:32:48;;;;;;;;;;;22.00;99.90;;;;;;5032941;28;19913;-82
2022/10/28 09:35:19;;;;;;;;;;;22.10;99.90;;;;;;5031651;28;20270;-83
2022/10/28 09:37:48;;;;;;;;;;;22.10;99.90;;;;;;5014572;28;19932;-84
2022/10/28 09:40:18;;;;;;;;;;;22.20;99.90;;;;;;5017395;28;19991;-84
2022/10/28 09:42:47;;;;;;;;;;;22.30;99.90;;;;;;5019410;28;19956;-84
2022/10/28 09:45:18;;;;;;;;;;;22.20;99.90;;;;;;5019516;28;19920;-84
2022/10/28 09:47:46;;;;;;;;;;;22.30;99.90;;;;;;5019374;28;19909;-84
2022/10/28 09:50:14;;;;;;;;;;;22.40;99.90;;;;;;5037126;28;19909;-83
2022/10/28 09:52:57;;;;;;;;;;;22.50;99.90;;;;;;5019881;28;20276;-83
2022/10/28 09:55:23;;;;;;;;;;;22.70;99.90;;;;;;5037254;28;19919;-83
2022/10/28 09:57:48;;;;;;;;;;;23.00;99.90;;;;;;5025630;28;19944;-84
2022/10/28 10:00:15;;;;;;;;;;;23.20;99.90;;;;;;5025288;28;19910;-83
2022/10/28 10:02:41;;;;;;;;;;;23.30;99.90;;;;;;5042260;28;19909;-84
2022/10/28 10:05:15;;;;;;;;;;;23.50;99.90;;;;;;5023724;28;20364;-83
2022/10/28 10:07:43;;;;;;;;;;;23.80;99.90;;;;;;5023366;28;19947;-83
2022/10/28 10:10:14;;;;;;;;;;;24.00;99.90;;;;;;5024447;28;19909;-84
2022/10/28 10:12:39;;;;;;;;;;;24.10;99.90;;;;;;5023604;28;19940;-83
2022/10/28 10:15:06;;;;;;;;;;;24.30;99.90;;;;;;5023100;28;19916;-84
2022/10/28 10:17:40;;;;;;;;;;;24.30;99.90;;;;;;5023070;28;19909;-82
2022/10/28 10:20:10;;;;;;;;;;;24.30;99.90;;;;;;5022515;28;20392;-84
2022/10/28 10:22:40;;;;;;;;;;;24.40;99.90;;;;;;5023045;28;19909;-82
2022/10/28 10:25:18;;;;;;;;;;;24.40;99.90;;;;;;5023107;28;19955;-83
2022/10/28 10:28:00;;;;;;;;;;;24.50;99.90;;;;;;5038394;28;20360;-83
2022/10/28 10:30:31;;;;;;;;;;;24.70;99.90;;;;;;5022079;28;20423;-83
2022/10/28 10:32:56;;;;;;;;;;;24.80;99.90;;;;;;5020405;28;19917;-83
2022/10/28 10:35:30;;;;;;;;;;;24.90;99.90;;;;;;5019900;28;19959;-83
2022/10/28 10:37:56;;;;;;;;;;;24.90;99.90;;;;;;5036613;28;19909;-84
2022/10/28 10:40:30;;;;;;;;;;;25.00;99.90;;;;;;5017538;28;20018;-84
2022/10/28 10:43:12;;;;;;;;;;;25.40;99.90;;;;;;5017661;28;20007;-84
2022/10/28 10:45:38;;;;;;;;;;;26.60;99.90;;;;;;5017620;28;20004;-84
2022/10/28 10:48:09;;;;;;;;;;;27.70;99.90;;;;;;5035071;28;19933;-83
2022/10/28 10:50:36;;;;;;;;;;;28.50;99.90;;;;;;5017433;28;19991;-84
2022/10/28 10:53:02;;;;;;;;;;;28.50;99.90;;;;;;5016472;28;19959;-83
2022/10/28 10:55:40;;;;;;;;;;;28.00;99.90;;;;;;5019574;28;19909;-85
2022/10/28 10:58:14;;;;;;;;;;;27.70;99.90;;;;;;5021837;28;19909;-83
2022/10/28 11:00:43;;;;;;;;;;;28.80;99.90;;;;;;5023195;28;19981;-85
2022/10/28 11:03:14;;;;;;;;;;;30.80;99.90;;;;;;5023344;28;19913;-84
2022/10/28 11:05:46;;;;;;;;;;;32.20;99.90;;;;;;5017555;28;19913;-85
2022/10/28 11:08:19;;;;;;;;;;;33.00;99.90;;;;;;5017623;28;19909;-85
2022/10/28 11:11:01;;;;;;;;;;;33.40;97.60;;;;;;5017444;28;19909;-86
2022/10/28 11:13:27;;;;;;;;;;;34.00;94.40;;;;;;5031444;28;19929;-82
2022/10/28 11:15:59;;;;;;;;;;;34.60;93.80;;;;;;5056118;28;19917;-85
2022/10/28 11:18:25;;;;;;;;;;;35.70;90.20;;;;;;5037325;28;19923;-84
2022/10/28 11:21:09;;;;;;;;;;;37.00;83.00;;;;;;5028760;28;19976;-85
2022/10/28 11:23:37;;;;;;;;;;;37.90;75.70;;;;;;4927632;28;19916;-84
2022/10/28 11:26:06;;;;;;;;;;;38.30;70.30;;;;;;4720728;29;1756829;-85
2022/10/28 11:28:37;;;;;;;;;;;37.80;66.60;;;;;;4753876;29;19933;-84
2022/10/28 11:31:12;;;;;;;;;;;37.70;65.90;;;;;;4829198;29;19917;-83
2022/10/28 11:33:37;;;;;;;;;;;38.30;63.60;;;;;;4829790;29;19917;-84
2022/10/28 11:36:13;;;;;;;;;;;38.90;59.80;;;;;;4828012;29;20632;-84
2022/10/28 11:38:42;;;;;;;;;;;39.30;59.30;;;;;;4831168;29;19916;-85
2022/10/28 11:41:30;;;;;;;;;;;39.30;57.60;;;;;;4828600;29;19919;-84
2022/10/28 11:43:57;;;;;;;;;;;38.90;56.10;;;;;;4830077;29;19917;-84
2022/10/28 11:46:33;;;;;;;;;;;37.90;56.80;;;;;;4823470;29;19917;-84
2022/10/28 11:49:07;;;;;;;;;;;37.00;56.60;;;;;;4826553;29;20389;-84
2022/10/28 11:51:42;;;;;;;;;;;37.00;57.10;;;;;;4810750;29;19941;-84
2022/10/28 11:54:36;;;;;;;;;;;37.30;57.50;;;;;;4825058;29;19929;-83
2022/10/28 11:57:02;;;;;;;;;;;36.80;56.90;;;;;;4825362;29;19919;-84
2022/10/28 11:59:44;;;;;;;;;;;36.20;56.60;;;;;;4825291;29;19956;-84
2022/10/28 12:02:24;;;;;;;;;;;35.70;57.20;;;;;;4824297;29;19924;-84
2022/10/28 12:04:53;;;;;;;;;;;35.40;57.70;;;;;;4824717;29;19961;-84
2022/10/28 12:07:36;;;;;;;;;;;35.40;58.00;;;;;;4822897;29;19970;-84
2022/10/28 12:10:16;;;;;;;;;;;35.60;57.70;;;;;;4809582;29;19917;-83
2022/10/28 12:12:52;;;;;;;;;;;35.50;58.10;;;;;;4823924;29;20301;-84
2022/10/28 12:15:22;;;;;;;;;;;34.90;58.10;;;;;;4821655;29;19913;-84
2022/10/28 12:17:55;;;;;;;;;;;34.70;58.50;;;;;;4822108;29;19917;-83
2022/10/28 12:20:23;;;;;;;;;;;34.50;58.80;;;;;;4822172;29;20049;-83
2022/10/28 12:22:53;;;;;;;;;;;34.00;59.70;;;;;;4808596;29;19925;-83
2022/10/28 12:25:26;;;;;;;;;;;33.40;60.40;;;;;;4803040;29;19957;-83
2022/10/28 12:27:57;;;;;;;;;;;33.00;61.10;;;;;;4827760;29;19920;-84
2022/10/28 12:30:28;;;;;;;;;;;32.70;60.80;;;;;;4869062;29;19923;-84
2022/10/28 12:32:59;;;;;;;;;;;32.60;65.10;;;;;;4880011;29;19988;-83
2022/10/28 12:35:29;;;;;;;;;;;33.20;63.00;;;;;;4881141;29;19987;-84
2022/10/28 12:38:15;;;;;;;;;;;33.60;61.50;;;;;;4881744;29;20380;-83
2022/10/28 12:40:48;;;;;;;;;;;33.80;61.60;;;;;;4881066;29;19912;-84
2022/10/28 12:43:16;;;;;;;;;;;33.60;61.20;;;;;;4878722;29;19955;-83
2022/10/28 12:45:42;;;;;;;;;;;33.70;61.70;;;;;;4893548;29;19912;-83
2022/10/28 12:48:07;;;;;;;;;;;33.90;59.30;;;;;;4878025;29;19960;-84
2022/10/28 12:50:38;;;;;;;;;;;33.50;58.90;;;;;;4894007;29;20022;-83
2022/10/28 12:53:17;;;;;;;;;;;33.10;60.90;;;;;;4879520;29;19914;-84
2022/10/28 12:55:44;;;;;;;;;;;33.20;61.50;;;;;;4878124;29;20002;-83
2022/10/28 12:58:28;;;;;;;;;;;33.00;62.40;;;;;;4879607;29;19912;-84
2022/10/28 13:00:56;;;;;;;;;;;32.60;61.30;;;;;;4894032;29;20002;-84
2022/10/28 13:03:21;;;;;;;;;;;32.10;62.40;;;;;;4878524;29;19916;-83
2022/10/28 13:05:52;;;;;;;;;;;31.60;65.60;;;;;;4878008;29;19912;-82
2022/10/28 13:08:21;;;;;;;;;;;31.10;66.30;;;;;;4893863;29;19912;-83
2022/10/28 13:10:56;;;;;;;;;;;30.60;67.70;;;;;;4893843;29;19916;-83
2022/10/28 13:13:32;;;;;;;;;;;30.20;69.00;;;;;;4879408;29;19915;-83
2022/10/28 13:16:07;;;;;;;;;;;29.80;70.40;;;;;;4877323;29;19912;-82
2022/10/28 13:18:38;;;;;;;;;;;29.60;71.80;;;;;;4878327;29;20451;-83
2022/10/28 13:21:19;;;;;;;;;;;29.50;71.20;;;;;;4896065;23;19928;-82
2022/10/28 13:23:44;;;;;;;;;;;29.50;73.10;;;;;;4878374;29;19919;-82
2022/10/28 13:26:31;;;;;;;;;;;29.50;74.70;;;;;;4890118;29;19926;-82
2022/10/28 13:28:58;;;;;;;;;;;29.50;76.50;;;;;;4892982;29;19959;-82
2022/10/28 13:31:34;;;;;;;;;;;29.50;76.00;;;;;;4878441;29;20291;-81
2022/10/28 13:34:00;;;;;;;;;;;29.40;75.50;;;;;;4878601;29;19919;-82
2022/10/28 13:36:30;;;;;;;;;;;29.30;74.10;;;;;;4892532;29;19912;-81
2022/10/28 13:38:58;;;;;;;;;;;29.30;75.90;;;;;;4878482;29;20316;-82
2022/10/28 13:41:34;;;;;;;;;;;29.20;77.50;;;;;;4878644;29;19915;-82
2022/10/28 13:44:09;;;;;;;;;;;29.10;78.30;;;;;;4878393;29;19958;-82
2022/10/28 13:46:53;;;;;;;;;;;29.10;77.40;;;;;;4877022;29;20003;-82
2022/10/28 13:49:23;;;;;;;;;;;29.00;76.70;;;;;;4878469;29;20359;-81
2022/10/28 13:51:49;;;;;;;;;;;28.90;79.00;;;;;;4878714;29;19912;-82
2022/10/28 13:54:25;;;;;;;;;;;28.80;79.70;;;;;;4878381;29;19912;-82
2022/10/28 13:56:50;;;;;;;;;;;28.70;82.80;;;;;;4878420;29;20360;-82
2022/10/28 13:59:19;;;;;;;;;;;28.60;83.20;;;;;;4878347;29;19960;-82
2022/10/28 14:01:50;;;;;;;;;;;28.40;84.90;;;;;;4878247;29;19912;-82
2022/10/28 14:04:42;;;;;;;;;;;28.30;85.90;;;;;;4878151;29;19923;-82
2022/10/28 14:07:11;;;;;;;;;;;28.10;84.90;;;;;;4891410;29;19916;-81
2022/10/28 14:09:38;;;;;;;;;;;27.90;85.90;;;;;;4878273;29;19972;-82
2022/10/28 14:12:11;;;;;;;;;;;27.70;85.40;;;;;;4878180;29;19967;-82
2022/10/28 14:14:37;;;;;;;;;;;27.70;89.80;;;;;;4878252;29;19919;-82
2022/10/28 14:17:03;;;;;;;;;;;27.60;93.30;;;;;;4877988;29;19912;-82
2022/10/28 14:19:28;;;;;;;;;;;27.60;97.70;;;;;;4878185;29;20332;-82
2022/10/28 14:21:54;;;;;;;;;;;27.60;99.90;;;;;;4878082;29;19919;-82
2022/10/28 14:24:28;;;;;;;;;;;27.50;99.90;;;;;;4878049;29;20529;-81
2022/10/28 14:27:02;;;;;;;;;;;27.40;99.90;;;;;;4924034;28;19922;-82